Time;durP1;ratioP1;P1;durP2;ratioP2;P2;SDS_P1;SDS_P2;PMS_P1;PMS_P2;Temp;Humidity;BMP_temperature;BMP_pressure;BME280_temperature;BME280_humidity;BME280_pressure;Samples;Min_cycle;Max_cycle;Signal;HPM_P1;HPM_P2
2022/09/02 00:00:41;0.00;0.00;0.62;0.00;0.00;0.62;1.90;1.10;;;26.20;24.00;;;;;;2241351;62;20358;-64
2022/09/02 00:03:27;0.00;0.00;0.62;0.00;0.00;0.62;2.27;1.00;;;26.20;24.00;;;;;;2241210;61;20390;-64
2022/09/02 00:06:13;0.00;0.00;0.62;0.00;0.00;0.62;1.73;0.80;;;26.10;23.90;;;;;;2241428;62;20395;-65
2022/09/02 00:09:00;0.00;0.00;0.62;0.00;0.00;0.62;2.53;1.47;;;26.10;23.90;;;;;;2241445;62;20358;-65
2022/09/02 00:11:47;0.00;0.00;0.62;0.00;0.00;0.62;2.57;1.07;;;26.10;24.00;;;;;;2241333;62;20374;-66
2022/09/02 00:14:36;0.00;0.00;0.62;0.00;0.00;0.62;1.60;1.00;;;26.10;24.00;;;;;;2243512;61;20693;-65
2022/09/02 00:17:21;0.00;0.00;0.62;0.00;0.00;0.62;1.93;1.17;;;26.10;24.00;;;;;;2241437;62;20589;-63
2022/09/02 00:20:07;0.00;0.00;0.62;0.00;0.00;0.62;1.50;0.90;;;26.10;24.10;;;;;;2241614;62;20437;-62
2022/09/02 00:22:51;0.00;0.00;0.62;0.00;0.00;0.62;1.50;1.03;;;26.10;24.10;;;;;;2239986;61;20403;-63
2022/09/02 00:25:39;0.00;0.00;0.62;0.00;0.00;0.62;2.77;1.00;;;26.10;24.10;;;;;;2237409;62;20403;-62
2022/09/02 00:28:24;0.00;0.00;0.62;0.00;0.00;0.62;2.17;1.10;;;26.10;24.10;;;;;;2237276;62;20744;-63
2022/09/02 00:31:09;0.00;0.00;0.62;0.00;0.00;0.62;1.73;1.20;;;26.10;24.20;;;;;;2237424;62;20386;-62
2022/09/02 00:33:55;0.00;0.00;0.62;0.00;0.00;0.62;2.17;1.50;;;26.10;24.20;;;;;;2237169;61;20455;-62
2022/09/02 00:36:40;0.00;0.00;0.62;0.00;0.00;0.62;2.07;1.10;;;26.10;24.20;;;;;;2237328;62;20463;-62
2022/09/02 00:39:25;0.00;0.00;0.62;0.00;0.00;0.62;1.80;0.93;;;26.00;24.10;;;;;;2240014;62;20374;-64
2022/09/02 00:42:11;0.00;0.00;0.62;0.00;0.00;0.62;2.30;1.20;;;26.00;24.20;;;;;;2237688;62;20359;-62
2022/09/02 00:44:56;0.00;0.00;0.62;0.00;0.00;0.62;1.90;1.13;;;26.00;24.20;;;;;;2557373;46;20395;-63
2022/09/02 00:47:41;0.00;0.00;0.62;0.00;0.00;0.62;1.70;1.30;;;26.00;24.70;;;;;;2237112;62;20418;-61
2022/09/02 00:50:31;0.00;0.00;0.62;0.00;0.00;0.62;1.40;0.90;;;26.00;24.20;;;;;;2237476;62;20383;-61
2022/09/02 00:53:17;0.00;0.00;0.62;0.00;0.00;0.62;2.00;1.30;;;26.00;24.20;;;;;;2238935;61;20371;-61
2022/09/02 00:56:02;0.00;0.00;0.62;0.00;0.00;0.62;1.63;1.00;;;26.00;24.20;;;;;;2241090;62;20455;-64
2022/09/02 00:58:50;0.00;0.00;0.62;0.00;0.00;0.62;1.70;1.00;;;26.00;24.30;;;;;;2241838;61;20747;-62
2022/09/02 01:01:35;0.00;0.00;0.62;0.00;0.00;0.62;4.40;1.63;;;26.00;24.30;;;;;;2245814;61;20726;-64
2022/09/02 01:04:19;0.00;0.00;0.62;0.00;0.00;0.62;1.67;1.00;;;26.00;24.30;;;;;;2238966;62;20431;-65
2022/09/02 01:07:05;0.00;0.00;0.62;0.00;0.00;0.62;1.80;1.03;;;25.90;24.30;;;;;;2237784;62;20607;-65
2022/09/02 01:09:52;0.00;0.00;0.62;0.00;0.00;0.62;1.60;1.20;;;25.90;24.30;;;;;;2237862;62;20363;-64
2022/09/02 01:12:37;0.00;0.00;0.62;0.00;0.00;0.62;1.50;1.10;;;25.90;24.30;;;;;;2238896;61;20359;-62
2022/09/02 01:15:24;0.00;0.00;0.62;0.00;0.00;0.62;1.57;1.13;;;25.90;24.30;;;;;;2245683;61;20650;-62
2022/09/02 01:18:15;0.00;0.00;0.62;0.00;0.00;0.62;1.60;1.00;;;25.90;24.30;;;;;;2245439;61;20373;-65
2022/09/02 01:21:00;0.00;0.00;0.62;0.00;0.00;0.62;1.40;0.90;;;25.90;24.30;;;;;;2245766;61;20378;-63
2022/09/02 01:23:48;0.00;0.00;0.62;0.00;0.00;0.62;1.90;1.30;;;25.80;24.30;;;;;;2243270;61;20447;-63
2022/09/02 01:26:32;0.00;0.00;0.62;0.00;0.00;0.62;1.50;1.10;;;25.90;24.40;;;;;;2244553;61;20347;-62
2022/09/02 01:29:17;0.00;0.00;0.62;0.00;0.00;0.62;1.60;1.10;;;25.90;24.50;;;;;;2241520;62;20370;-62
2022/09/02 01:32:04;0.00;0.00;0.62;0.00;0.00;0.62;1.70;1.10;;;25.90;24.40;;;;;;2241894;62;20403;-64
2022/09/02 01:34:49;0.00;0.00;0.62;0.00;0.00;0.62;1.50;1.10;;;25.80;24.40;;;;;;2476438;53;20394;-63
2022/09/02 01:37:35;0.00;0.00;0.62;0.00;0.00;0.62;1.50;0.97;;;25.80;24.50;;;;;;2241825;62;20367;-63
2022/09/02 01:40:23;0.00;0.00;0.62;0.00;0.00;0.62;1.90;1.00;;;25.80;24.50;;;;;;2244043;61;20366;-61
2022/09/02 01:43:13;0.00;0.00;0.62;0.00;0.00;0.62;1.73;1.00;;;25.80;24.50;;;;;;2245497;61;20595;-66
2022/09/02 01:45:59;0.00;0.00;0.62;0.00;0.00;0.62;1.87;1.00;;;25.80;24.50;;;;;;2245683;61;20404;-64
2022/09/02 01:48:46;0.00;0.00;0.62;0.00;0.00;0.62;2.00;1.10;;;25.80;24.50;;;;;;2245682;61;20721;-64
2022/09/02 01:51:32;0.00;0.00;0.62;0.00;0.00;0.62;1.60;1.10;;;25.70;24.50;;;;;;2245686;61;20725;-63
2022/09/02 01:54:18;0.00;0.00;0.62;0.00;0.00;0.62;1.73;1.00;;;25.80;24.60;;;;;;2242020;62;20753;-63
2022/09/02 01:57:04;0.00;0.00;0.62;0.00;0.00;0.62;2.20;1.13;;;25.70;24.60;;;;;;2241701;62;20479;-65
2022/09/02 01:59:49;0.00;0.00;0.62;0.00;0.00;0.62;2.10;0.90;;;25.70;24.60;;;;;;2241927;61;20446;-64
2022/09/02 02:02:35;0.00;0.00;0.62;0.00;0.00;0.62;2.40;1.20;;;25.70;24.60;;;;;;2243956;61;20582;-62
2022/09/02 02:05:21;0.00;0.00;0.62;0.00;0.00;0.62;1.83;1.23;;;25.70;24.60;;;;;;2241294;62;20771;-64
2022/09/02 02:08:08;0.00;0.00;0.62;0.00;0.00;0.62;1.50;1.10;;;25.70;24.60;;;;;;2241661;62;20390;-61
2022/09/02 02:10:53;0.00;0.00;0.62;0.00;0.00;0.62;1.60;1.03;;;25.70;24.70;;;;;;2241868;62;20484;-62
2022/09/02 02:13:41;0.00;0.00;0.62;0.00;0.00;0.62;2.40;1.10;;;25.70;24.70;;;;;;2243643;61;20402;-62
2022/09/02 02:16:28;0.00;0.00;0.62;0.00;0.00;0.62;1.37;0.97;;;25.70;24.70;;;;;;2241566;62;20386;-64
2022/09/02 02:19:13;0.00;0.00;0.62;0.00;0.00;0.62;2.07;1.10;;;25.70;24.70;;;;;;2241306;62;20370;-62
2022/09/02 02:21:57;0.00;0.00;0.62;0.00;0.00;0.62;1.53;1.00;;;25.70;24.70;;;;;;2241718;62;20363;-64
2022/09/02 02:24:42;0.00;0.00;0.62;0.00;0.00;0.62;1.93;1.20;;;25.70;24.70;;;;;;2243961;61;20445;-65
2022/09/02 02:27:27;0.00;0.00;0.62;0.00;0.00;0.62;1.50;1.10;;;25.70;24.80;;;;;;2245660;61;20446;-66
2022/09/02 02:30:16;0.00;0.00;0.62;0.00;0.00;0.62;1.50;0.90;;;25.60;24.70;;;;;;2245348;61;20418;-64
2022/09/02 02:33:01;0.00;0.00;0.62;0.00;0.00;0.62;1.50;1.20;;;25.60;24.80;;;;;;2244160;61;20406;-65
2022/09/02 02:35:46;0.00;0.00;0.62;0.00;0.00;0.62;1.60;1.00;;;25.60;24.80;;;;;;2241287;62;20418;-63
2022/09/02 02:38:33;0.00;0.00;0.62;0.00;0.00;0.62;1.67;1.00;;;25.60;24.80;;;;;;2243947;61;20406;-66
2022/09/02 02:41:18;0.00;0.00;0.62;0.00;0.00;0.62;1.53;1.20;;;25.60;24.80;;;;;;2243903;61;20375;-65
2022/09/02 02:44:04;0.00;0.00;0.62;0.00;0.00;0.62;3.03;1.30;;;25.60;24.80;;;;;;2243887;61;20769;-64
2022/09/02 02:46:54;0.00;0.00;0.62;0.00;0.00;0.62;2.53;1.20;;;25.60;24.90;;;;;;2243834;61;20410;-63
2022/09/02 02:49:43;0.00;0.00;0.62;0.00;0.00;0.62;1.60;0.90;;;25.60;24.90;;;;;;2241669;62;20688;-64
2022/09/02 02:52:28;0.00;0.00;0.62;0.00;0.00;0.62;2.33;1.00;;;25.60;24.90;;;;;;2241821;61;20378;-63
2022/09/02 02:55:14;0.00;0.00;0.62;0.00;0.00;0.62;1.53;0.93;;;25.50;24.90;;;;;;2244165;61;20382;-64
2022/09/02 02:58:00;0.00;0.00;0.62;0.00;0.00;0.62;1.50;1.00;;;25.60;24.90;;;;;;2241393;62;20398;-65
2022/09/02 03:00:45;0.00;0.00;0.62;0.00;0.00;0.62;1.47;1.00;;;25.60;24.90;;;;;;2243831;61;20707;-65
2022/09/02 03:03:33;0.00;0.00;0.62;0.00;0.00;0.62;1.60;1.00;;;25.60;24.90;;;;;;2243759;61;20415;-63
2022/09/02 03:06:19;0.00;0.00;0.62;0.00;0.00;0.62;1.50;0.90;;;25.50;24.90;;;;;;2243981;61;20363;-65
2022/09/02 03:09:05;0.00;0.00;0.62;0.00;0.00;0.62;1.80;1.10;;;25.50;25.50;;;;;;2243712;61;20414;-63
2022/09/02 03:11:52;0.00;0.00;0.62;0.00;0.00;0.62;2.13;1.23;;;25.50;24.90;;;;;;2243877;61;20520;-63
2022/09/02 03:14:37;0.00;0.00;0.62;0.00;0.00;0.62;1.97;0.93;;;25.50;25.00;;;;;;2243816;61;20405;-65
2022/09/02 03:17:22;0.00;0.00;0.62;0.00;0.00;0.62;1.50;0.90;;;25.50;25.00;;;;;;2241807;62;20573;-63
2022/09/02 03:20:10;0.00;0.00;0.62;0.00;0.00;0.62;1.60;1.10;;;25.50;25.00;;;;;;2243711;61;20570;-64
2022/09/02 03:23:00;0.00;0.00;0.62;0.00;0.00;0.62;1.70;1.00;;;25.50;25.10;;;;;;2243365;61;20386;-63
2022/09/02 03:25:45;0.00;0.00;0.62;0.00;0.00;0.62;2.43;1.20;;;25.50;25.10;;;;;;2241567;62;20425;-63
2022/09/02 03:28:41;0.00;0.00;0.62;0.00;0.00;0.62;1.80;1.10;;;25.50;25.10;;;;;;2241489;62;20743;-61
2022/09/02 03:31:27;0.00;0.00;0.62;0.00;0.00;0.62;1.80;0.90;;;25.50;25.10;;;;;;2240975;61;20374;-63
2022/09/02 03:34:13;0.00;0.00;0.62;0.00;0.00;0.62;1.90;1.10;;;25.50;25.20;;;;;;2237675;62;20557;-63
2022/09/02 03:36:59;0.00;0.00;0.62;0.00;0.00;0.62;1.57;0.93;;;25.50;25.20;;;;;;2237275;62;20778;-63
2022/09/02 03:39:45;0.00;0.00;0.62;0.00;0.00;0.62;1.70;0.90;;;25.50;25.20;;;;;;2240225;62;20469;-67
2022/09/02 03:42:30;0.00;0.00;0.62;0.00;0.00;0.62;1.60;0.97;;;25.50;25.20;;;;;;2239539;61;20371;-65
2022/09/02 03:45:15;0.00;0.00;0.62;0.00;0.00;0.62;1.83;1.10;;;25.40;25.20;;;;;;2239797;62;20382;-62
2022/09/02 03:48:00;0.00;0.00;0.62;0.00;0.00;0.62;1.90;1.13;;;25.50;25.20;;;;;;2239866;62;20415;-65
2022/09/02 03:50:48;0.00;0.00;0.62;0.00;0.00;0.62;1.60;1.00;;;25.40;25.20;;;;;;2239853;62;20355;-64
2022/09/02 03:53:38;0.00;0.00;0.62;0.00;0.00;0.62;1.90;1.13;;;25.40;25.20;;;;;;2241908;61;20401;-66
2022/09/02 03:56:24;0.00;0.00;0.62;0.00;0.00;0.62;1.70;1.17;;;25.40;25.20;;;;;;2243660;61;20636;-63
2022/09/02 03:59:09;0.00;0.00;0.62;0.00;0.00;0.62;2.20;1.10;;;25.40;25.20;;;;;;2243962;61;20362;-63
2022/09/02 04:01:54;0.00;0.00;0.62;0.00;0.00;0.62;1.97;1.43;;;25.40;25.20;;;;;;2244158;61;20631;-66
2022/09/02 04:04:40;0.00;0.00;0.62;0.00;0.00;0.62;1.50;0.97;;;25.40;25.20;;;;;;2243350;61;20402;-63
2022/09/02 04:07:25;0.00;0.00;0.62;0.00;0.00;0.62;4.23;1.40;;;25.40;25.20;;;;;;2241228;62;20739;-65
2022/09/02 04:10:12;0.00;0.00;0.62;0.00;0.00;0.62;2.73;1.27;;;25.40;25.20;;;;;;2241418;62;20592;-62
2022/09/02 04:12:58;0.00;0.00;0.62;0.00;0.00;0.62;2.25;1.30;;;25.40;25.20;;;;;;2243346;61;20370;-64
2022/09/02 04:15:46;0.00;0.00;0.62;0.00;0.00;0.62;1.63;1.13;;;25.40;25.30;;;;;;2241266;62;20264;-62
2022/09/02 04:18:32;0.00;0.00;0.62;0.00;0.00;0.62;1.97;1.13;;;25.40;25.30;;;;;;2243795;61;20407;-64
2022/09/02 04:21:18;0.00;0.00;0.62;0.00;0.00;0.62;2.27;1.40;;;25.40;25.30;;;;;;2241505;62;20616;-67
2022/09/02 04:24:06;0.00;0.00;0.62;0.00;0.00;0.62;1.73;1.13;;;25.40;25.30;;;;;;2244851;61;20416;-60
2022/09/02 04:26:52;0.00;0.00;0.62;0.00;0.00;0.62;1.63;0.97;;;25.40;25.30;;;;;;2244573;61;20362;-64
2022/09/02 04:29:37;0.00;0.00;0.62;0.00;0.00;0.62;2.10;1.17;;;25.30;25.30;;;;;;2244849;61;20354;-63
2022/09/02 04:32:25;0.00;0.00;0.62;0.00;0.00;0.62;2.30;1.23;;;25.30;25.30;;;;;;2244824;61;20708;-63
2022/09/02 04:35:10;0.00;0.00;0.62;0.00;0.00;0.62;3.90;1.23;;;25.30;25.30;;;;;;2240216;62;20459;-64
2022/09/02 04:37:56;0.00;0.00;0.62;0.00;0.00;0.62;2.63;1.40;;;25.30;25.30;;;;;;2237676;62;20375;-64
2022/09/02 04:40:44;0.00;0.00;0.62;0.00;0.00;0.62;2.33;1.20;;;25.30;25.40;;;;;;2238226;62;20399;-64
2022/09/02 04:43:30;0.00;0.00;0.62;0.00;0.00;0.62;1.90;1.13;;;25.30;25.40;;;;;;2242596;61;20397;-62
2022/09/02 04:46:17;0.00;0.00;0.62;0.00;0.00;0.62;2.10;1.40;;;25.30;25.40;;;;;;2244664;61;20579;-61
2022/09/02 04:49:03;0.00;0.00;0.62;0.00;0.00;0.62;1.80;1.10;;;25.30;25.40;;;;;;2241290;62;20443;-65
2022/09/02 04:51:49;0.00;0.00;0.62;0.00;0.00;0.62;1.50;1.00;;;25.30;25.40;;;;;;2244306;61;20362;-65
2022/09/02 04:54:34;0.00;0.00;0.62;0.00;0.00;0.62;2.67;1.30;;;25.20;25.40;;;;;;2245555;61;20397;-64
2022/09/02 04:57:20;0.00;0.00;0.62;0.00;0.00;0.62;1.70;1.13;;;25.20;25.50;;;;;;2245401;61;20392;-61
2022/09/02 05:00:08;0.00;0.00;0.62;0.00;0.00;0.62;1.90;1.27;;;25.20;25.50;;;;;;2245477;61;20414;-63
2022/09/02 05:02:54;0.00;0.00;0.62;0.00;0.00;0.62;2.27;1.10;;;25.20;25.50;;;;;;2243288;61;20584;-63
2022/09/02 05:05:41;0.00;0.00;0.62;0.00;0.00;0.62;2.00;1.37;;;25.20;25.50;;;;;;2240382;62;20391;-63
2022/09/02 05:08:28;0.00;0.00;0.62;0.00;0.00;0.62;1.83;1.20;;;25.20;25.60;;;;;;2240516;62;20363;-64
2022/09/02 05:11:17;0.00;0.00;0.62;0.00;0.00;0.62;2.37;1.40;;;25.20;25.60;;;;;;2237336;62;20358;-67
2022/09/02 05:14:05;0.00;0.00;0.62;0.00;0.00;0.62;1.70;1.00;;;25.20;25.70;;;;;;2240114;61;20391;-63
2022/09/02 05:16:53;0.00;0.00;0.62;0.00;0.00;0.62;1.87;1.13;;;25.20;25.70;;;;;;2240043;62;20411;-65
2022/09/02 05:19:38;0.00;0.00;0.62;0.00;0.00;0.62;1.47;1.17;;;25.20;25.60;;;;;;2237977;62;20407;-64
2022/09/02 05:22:24;0.00;0.00;0.62;0.00;0.00;0.62;2.40;1.50;;;25.20;25.60;;;;;;2239972;61;20639;-61
2022/09/02 05:25:13;0.00;0.00;0.62;0.00;0.00;0.62;2.73;1.53;;;25.20;25.60;;;;;;2240300;62;20427;-65
2022/09/02 05:27:58;0.00;0.00;0.62;0.00;0.00;0.62;1.80;1.07;;;25.20;25.60;;;;;;2240435;61;20376;-65
2022/09/02 05:30:42;0.00;0.00;0.62;0.00;0.00;0.62;2.30;1.37;;;25.20;25.70;;;;;;2238203;62;20605;-61
2022/09/02 05:33:30;0.00;0.00;0.62;0.00;0.00;0.62;3.53;1.23;;;25.20;25.70;;;;;;2238977;61;20411;-62
2022/09/02 05:36:19;0.00;0.00;0.62;0.00;0.00;0.62;3.23;1.23;;;25.20;25.70;;;;;;2240074;62;20395;-64
2022/09/02 05:39:05;0.00;0.00;0.62;0.00;0.00;0.62;4.23;1.83;;;25.20;25.80;;;;;;2240271;62;20359;-62
2022/09/02 05:41:51;0.00;0.00;0.62;0.00;0.00;0.62;1.90;1.40;;;25.20;25.80;;;;;;2240142;62;20359;-61
2022/09/02 05:44:37;0.00;0.00;0.62;0.00;0.00;0.62;3.83;1.63;;;25.10;25.70;;;;;;2244979;61;20445;-65
2022/09/02 05:47:24;0.00;0.00;0.62;0.00;0.00;0.62;2.30;1.70;;;25.10;25.70;;;;;;2245389;61;20737;-63
2022/09/02 05:50:10;0.00;0.00;0.62;0.00;0.00;0.62;4.30;1.67;;;25.10;25.70;;;;;;2245624;61;20426;-65
2022/09/02 05:52:55;0.00;0.00;0.62;0.00;0.00;0.62;4.53;1.47;;;25.10;25.80;;;;;;2244453;61;20381;-64
2022/09/02 05:55:41;0.00;0.00;0.62;0.00;0.00;0.62;1.70;1.17;;;25.10;25.80;;;;;;2243677;61;20407;-64
2022/09/02 05:58:26;0.00;0.00;0.62;0.00;0.00;0.62;2.27;1.53;;;25.10;25.80;;;;;;2243928;61;20588;-62
2022/09/02 06:01:17;0.00;0.00;0.62;0.00;0.00;0.62;2.63;1.40;;;25.10;25.80;;;;;;2244136;61;20370;-61
2022/09/02 06:04:04;0.00;0.00;0.62;0.00;0.00;0.62;2.37;1.40;;;25.10;25.80;;;;;;2243969;61;20378;-62
2022/09/02 06:06:51;0.00;0.00;0.62;0.00;0.00;0.62;2.30;1.30;;;25.10;25.80;;;;;;2241702;62;20357;-63
2022/09/02 06:09:36;0.00;0.00;0.62;0.00;0.00;0.62;2.27;1.40;;;25.10;25.80;;;;;;2243962;61;20394;-62
2022/09/02 06:12:23;0.00;0.00;0.62;0.00;0.00;0.62;2.10;1.50;;;25.10;25.80;;;;;;2241706;61;20402;-62
2022/09/02 06:15:09;0.00;0.00;0.62;0.00;0.00;0.62;2.50;1.60;;;25.10;25.90;;;;;;2245889;61;20490;-63
2022/09/02 06:17:58;0.00;0.00;0.62;0.00;0.00;0.62;3.00;1.97;;;25.10;25.90;;;;;;2245040;61;20698;-62
2022/09/02 06:20:47;0.00;0.00;0.62;0.00;0.00;0.62;2.27;1.40;;;25.10;25.90;;;;;;2245186;61;20579;-63
2022/09/02 06:23:37;0.00;0.00;0.62;0.00;0.00;0.62;3.23;1.83;;;25.10;26.00;;;;;;2242931;61;20414;-63
2022/09/02 06:26:22;0.00;0.00;0.62;0.00;0.00;0.62;2.47;1.30;;;25.10;26.00;;;;;;2243990;61;20399;-65
2022/09/02 06:29:09;0.00;0.00;0.62;0.00;0.00;0.62;2.30;1.70;;;25.10;26.00;;;;;;2243876;61;20791;-62
2022/09/02 06:31:55;0.00;0.00;0.62;0.00;0.00;0.62;3.23;1.80;;;25.00;25.90;;;;;;2243961;61;20650;-63
2022/09/02 06:34:42;0.00;0.00;0.62;0.00;0.00;0.62;3.50;1.53;;;25.10;26.00;;;;;;2247873;61;20393;-63
2022/09/02 06:37:26;0.00;0.00;0.62;0.00;0.00;0.62;3.10;2.20;;;25.00;25.90;;;;;;2245520;61;20389;-63
2022/09/02 06:40:14;0.00;0.00;0.62;0.00;0.00;0.62;2.83;1.87;;;25.00;26.00;;;;;;2245347;61;20369;-66
2022/09/02 06:43:00;0.00;0.00;0.62;0.00;0.00;0.62;2.47;1.60;;;25.00;26.00;;;;;;2244936;61;20733;-63
2022/09/02 06:45:50;0.00;0.00;0.62;0.00;0.00;0.62;3.93;1.70;;;25.00;26.00;;;;;;2245162;61;20405;-64
2022/09/02 06:48:35;0.00;0.00;0.62;0.00;0.00;0.62;2.23;1.37;;;25.00;26.00;;;;;;2245171;61;20378;-65
2022/09/02 06:51:23;0.00;0.00;0.62;0.00;0.00;0.62;1.87;1.50;;;25.00;26.10;;;;;;2242425;61;20365;-62
2022/09/02 06:54:13;0.00;0.00;0.62;0.00;0.00;0.62;3.37;1.90;;;25.00;26.20;;;;;;2245190;61;20401;-65
2022/09/02 06:56:59;0.00;0.00;0.62;0.00;0.00;0.62;4.00;1.80;;;25.00;26.20;;;;;;2245034;61;20433;-65
2022/09/02 06:59:45;0.00;0.00;0.62;0.00;0.00;0.62;3.33;1.83;;;25.00;26.20;;;;;;2245549;61;20361;-66
2022/09/02 07:02:31;0.00;0.00;0.62;0.00;0.00;0.62;2.57;2.17;;;25.00;26.20;;;;;;2244035;61;20769;-65
2022/09/02 07:05:17;0.00;0.00;0.62;0.00;0.00;0.62;5.77;2.20;;;25.00;26.30;;;;;;2239912;62;20674;-66
2022/09/02 07:08:05;0.00;0.00;0.62;0.00;0.00;0.62;3.90;2.37;;;25.00;26.40;;;;;;2239800;62;20454;-65
2022/09/02 07:10:50;0.00;0.00;0.62;0.00;0.00;0.62;3.20;1.80;;;25.00;26.40;;;;;;2239962;62;20363;-69
2022/09/02 07:13:37;0.00;0.00;0.62;0.00;0.00;0.62;2.33;1.47;;;25.00;26.50;;;;;;2241959;61;20757;-67
2022/09/02 07:16:24;0.00;0.00;0.62;0.00;0.00;0.62;3.30;2.33;;;25.00;26.50;;;;;;2241418;62;20390;-66
2022/09/02 07:19:11;0.00;0.00;0.62;0.00;0.00;0.62;3.60;1.87;;;25.00;26.60;;;;;;2241301;62;20398;-67
2022/09/02 07:21:56;0.00;0.00;0.62;0.00;0.00;0.62;3.73;2.20;;;25.00;26.60;;;;;;2244220;61;20358;-64
2022/09/02 07:24:42;0.00;0.00;0.62;0.00;0.00;0.62;3.23;2.00;;;25.00;27.10;;;;;;2239698;62;20447;-66
2022/09/02 07:27:27;0.00;0.00;0.62;0.00;0.00;0.62;2.70;1.80;;;25.00;26.60;;;;;;2239930;62;20730;-65
2022/09/02 07:30:16;0.00;0.00;0.62;0.00;0.00;0.62;3.27;2.37;;;25.00;26.60;;;;;;2239891;62;20371;-67
2022/09/02 07:33:04;0.00;0.00;0.62;0.00;0.00;0.62;2.97;1.80;;;25.00;26.60;;;;;;2241022;61;20374;-67
2022/09/02 07:35:52;0.00;0.00;0.62;0.00;0.00;0.62;4.50;2.60;;;25.00;26.70;;;;;;2243702;61;20386;-68
2022/09/02 07:38:40;0.00;0.00;0.62;0.00;0.00;0.62;6.67;2.30;;;25.00;26.70;;;;;;2238438;62;20364;-68
2022/09/02 07:41:26;0.00;0.00;0.62;0.00;0.00;0.62;3.47;1.97;;;25.10;26.80;;;;;;2241473;62;20390;-64
2022/09/02 07:44:12;0.00;0.00;0.62;0.00;0.00;0.62;2.50;1.70;;;25.00;26.80;;;;;;2241199;62;20393;-65
2022/09/02 07:46:59;0.00;0.00;0.62;0.00;0.00;0.62;2.87;1.93;;;25.10;26.80;;;;;;2243786;61;20387;-67
2022/09/02 07:49:45;0.00;0.00;0.62;0.00;0.00;0.62;1.97;1.57;;;25.10;26.80;;;;;;2243743;61;20402;-68
2022/09/02 07:52:30;0.00;0.00;0.62;0.00;0.00;0.62;3.93;2.03;;;25.10;26.80;;;;;;2243719;61;20359;-68
2022/09/02 07:55:15;0.00;0.00;0.62;0.00;0.00;0.62;2.40;1.50;;;25.10;26.90;;;;;;2243979;61;20382;-68
2022/09/02 07:58:02;0.00;0.00;0.62;0.00;0.00;0.62;4.90;2.23;;;25.10;26.90;;;;;;2243792;61;20362;-68
2022/09/02 08:00:49;0.00;0.00;0.62;0.00;0.00;0.62;2.93;1.77;;;25.10;26.90;;;;;;2241476;62;20590;-67
2022/09/02 08:03:37;0.00;0.00;0.62;0.00;0.00;0.62;2.30;1.70;;;25.10;26.90;;;;;;2243666;61;20490;-69
2022/09/02 08:06:25;0.00;0.00;0.62;0.00;0.00;0.62;2.10;1.40;;;25.10;26.90;;;;;;2244020;61;20584;-63
2022/09/02 08:09:10;0.00;0.00;0.62;0.00;0.00;0.62;2.77;1.73;;;25.20;26.90;;;;;;2241962;62;20405;-63
2022/09/02 08:11:55;0.00;0.00;0.62;0.00;0.00;0.62;4.03;1.83;;;25.20;26.90;;;;;;2242141;62;20367;-67
2022/09/02 08:14:40;0.00;0.00;0.62;0.00;0.00;0.62;2.17;1.60;;;25.20;26.90;;;;;;2241869;62;20394;-70
2022/09/02 08:17:25;0.00;0.00;0.62;0.00;0.00;0.62;3.23;1.60;;;25.20;26.90;;;;;;2242067;62;20474;-62
2022/09/02 08:20:13;0.00;0.00;0.62;0.00;0.00;0.62;3.13;1.80;;;25.20;26.90;;;;;;2241961;61;20382;-67
2022/09/02 08:22:58;0.00;0.00;0.62;0.00;0.00;0.62;2.13;1.33;;;25.20;26.90;;;;;;2241757;61;20375;-68
2022/09/02 08:25:44;0.00;0.00;0.62;0.00;0.00;0.62;2.10;1.60;;;25.20;26.90;;;;;;2242315;62;20422;-68
2022/09/02 08:28:30;0.00;0.00;0.62;0.00;0.00;0.62;2.40;1.40;;;25.20;27.00;;;;;;2242099;62;20398;-66
2022/09/02 08:31:15;0.00;0.00;0.62;0.00;0.00;0.62;3.47;1.80;;;25.30;27.00;;;;;;2245681;61;20489;-65
2022/09/02 08:34:00;0.00;0.00;0.62;0.00;0.00;0.62;2.20;1.50;;;25.30;27.00;;;;;;2242818;61;20455;-65
2022/09/02 08:36:46;0.00;0.00;0.62;0.00;0.00;0.62;2.53;1.17;;;25.30;27.00;;;;;;2238451;62;20443;-67
2022/09/02 08:39:31;0.00;0.00;0.62;0.00;0.00;0.62;3.20;1.67;;;25.30;27.60;;;;;;2238157;62;20367;-69
2022/09/02 08:42:23;0.00;0.00;0.62;0.00;0.00;0.62;2.93;1.07;;;25.30;27.00;;;;;;2238120;62;20455;-66
2022/09/02 08:45:13;0.00;0.00;0.62;0.00;0.00;0.62;3.70;1.40;;;25.40;27.20;;;;;;2245084;61;20436;-63
2022/09/02 08:48:07;0.00;0.00;0.62;0.00;0.00;0.62;3.13;1.40;;;25.40;27.10;;;;;;2245936;61;20354;-67
2022/09/02 08:50:57;0.00;0.00;0.62;0.00;0.00;0.62;2.30;1.70;;;25.40;27.10;;;;;;2246359;61;20753;-65
2022/09/02 08:53:51;0.00;0.00;0.62;0.00;0.00;0.62;2.30;1.40;;;25.40;27.10;;;;;;2240868;61;20734;-62
2022/09/02 08:56:36;0.00;0.00;0.62;0.00;0.00;0.62;2.43;1.43;;;25.40;27.10;;;;;;2237808;62;20652;-63
2022/09/02 08:59:26;0.00;0.00;0.62;0.00;0.00;0.62;3.47;1.80;;;25.40;27.10;;;;;;2238012;62;20367;-63
2022/09/02 09:02:23;0.00;0.00;0.62;0.00;0.00;0.62;3.70;1.90;;;25.40;27.10;;;;;;2240390;62;20384;-63
2022/09/02 09:05:22;0.00;0.00;0.62;0.00;0.00;0.62;2.20;1.60;;;25.50;27.20;;;;;;2240417;62;20388;-63
2022/09/02 09:08:16;0.00;0.00;0.62;0.00;0.00;0.62;2.57;1.57;;;25.40;27.20;;;;;;2237705;62;20475;-62
2022/09/02 09:11:11;0.00;0.00;0.62;0.00;0.00;0.62;2.93;1.50;;;25.50;27.20;;;;;;2237980;62;20404;-62
2022/09/02 09:14:29;0.00;0.00;0.62;0.00;0.00;0.62;2.57;1.33;;;25.50;27.20;;;;;;2237739;61;20501;-61
2022/09/02 09:17:24;0.00;0.00;0.62;0.00;0.00;0.62;3.13;1.60;;;25.50;27.20;;;;;;2237937;62;20395;-65
2022/09/02 09:20:16;0.00;0.00;0.62;0.00;0.00;0.62;1.90;1.33;;;25.50;27.20;;;;;;2238274;62;20624;-62
2022/09/02 09:23:13;0.00;0.00;0.62;0.00;0.00;0.62;2.73;1.90;;;25.50;27.20;;;;;;2238771;61;20374;-62
2022/09/02 09:26:08;0.00;0.00;0.62;0.00;0.00;0.62;5.87;1.40;;;25.50;27.20;;;;;;2241937;62;20411;-62
2022/09/02 09:28:54;0.00;0.00;0.62;0.00;0.00;0.62;3.33;1.47;;;25.50;27.80;;;;;;2241746;62;20379;-62
2022/09/02 09:31:40;0.00;0.00;0.62;0.00;0.00;0.62;2.33;1.53;;;25.50;27.20;;;;;;2241873;61;20366;-62
2022/09/02 09:35:00;0.00;0.00;0.62;0.00;0.00;0.62;2.50;1.53;;;25.60;27.20;;;;;;2241935;62;20758;-61
2022/09/02 09:37:47;0.00;0.00;0.62;0.00;0.00;0.62;2.83;1.30;;;25.60;27.20;;;;;;2241560;62;20430;-62
2022/09/02 09:40:32;0.00;0.00;0.62;0.00;0.00;0.62;1.87;1.27;;;25.60;27.20;;;;;;2241807;62;20378;-63
2022/09/02 09:43:18;0.00;0.00;0.62;0.00;0.00;0.62;1.90;1.30;;;25.60;27.10;;;;;;2239831;61;20588;-64
2022/09/02 09:46:24;0.00;0.00;0.62;0.00;0.00;0.62;1.83;1.40;;;25.60;27.00;;;;;;2237946;62;20402;-62
2022/09/02 09:49:09;0.00;0.00;0.62;0.00;0.00;0.62;2.10;1.20;;;25.70;26.90;;;;;;2237839;62;20360;-62
2022/09/02 09:51:55;0.00;0.00;0.62;0.00;0.00;0.62;2.90;1.33;;;25.70;26.90;;;;;;2237709;62;20366;-62
2022/09/02 09:54:40;0.00;0.00;0.62;0.00;0.00;0.62;2.07;1.43;;;25.60;26.80;;;;;;2237654;62;20391;-62
2022/09/02 09:57:25;0.00;0.00;0.62;0.00;0.00;0.62;4.93;1.60;;;25.70;26.80;;;;;;2238269;62;20415;-62
2022/09/02 10:00:24;0.00;0.00;0.62;0.00;0.00;0.62;2.03;1.30;;;25.70;26.80;;;;;;2237934;62;20743;-62
2022/09/02 10:03:21;0.00;0.00;0.62;0.00;0.00;0.62;2.20;1.33;;;25.70;26.70;;;;;;2241404;61;20382;-62
2022/09/02 10:06:19;0.00;0.00;0.62;0.00;0.00;0.62;2.10;1.27;;;25.70;26.60;;;;;;2241638;62;20403;-62
2022/09/02 10:09:14;0.00;0.00;0.62;0.00;0.00;0.62;2.60;1.50;;;25.70;26.60;;;;;;2241906;62;20398;-62
2022/09/02 10:12:04;0.00;0.00;0.62;0.00;0.00;0.62;1.80;1.20;;;25.70;26.50;;;;;;2242059;62;20382;-62
2022/09/02 10:14:51;0.00;0.00;0.62;0.00;0.00;0.62;2.50;1.50;;;25.80;26.50;;;;;;2468355;54;20384;-62
2022/09/02 10:17:47;0.00;0.00;0.62;0.00;0.00;0.62;9.50;1.20;;;25.80;26.40;;;;;;2239898;62;20439;-62
2022/09/02 10:20:49;0.00;0.00;0.62;0.00;0.00;0.62;2.80;1.23;;;25.80;26.30;;;;;;2237795;62;20371;-62
2022/09/02 10:23:48;0.00;0.00;0.62;0.00;0.00;0.62;3.83;1.17;;;25.80;26.30;;;;;;2242071;61;20788;-62
2022/09/02 10:26:40;0.00;0.00;0.62;0.00;0.00;0.62;2.33;1.53;;;25.80;26.20;;;;;;2245951;61;20770;-62
2022/09/02 10:29:53;0.00;0.00;0.62;0.00;0.00;0.62;2.03;1.20;;;25.90;26.20;;;;;;2245453;61;20435;-61
2022/09/02 10:32:56;0.00;0.00;0.62;0.00;0.00;0.62;3.73;1.43;;;25.90;26.10;;;;;;2244933;61;20378;-60
2022/09/02 10:35:44;0.00;0.00;0.62;0.00;0.00;0.62;2.90;1.60;;;25.90;25.90;;;;;;2241669;62;20382;-61
2022/09/02 10:38:40;0.00;0.00;0.62;0.00;0.00;0.62;3.50;1.40;;;26.00;26.00;;;;;;2241730;62;20750;-61
2022/09/02 10:41:45;0.00;0.00;0.62;0.00;0.00;0.62;2.97;1.20;;;26.00;25.90;;;;;;2241835;62;20359;-61
2022/09/02 10:44:35;0.00;0.00;0.62;0.00;0.00;0.62;4.07;1.23;;;26.00;25.80;;;;;;2241462;62;20442;-62
2022/09/02 10:47:30;0.00;0.00;0.62;0.00;0.00;0.62;2.43;1.37;;;26.00;25.50;;;;;;2243743;61;20367;-62
2022/09/02 10:50:25;0.00;0.00;0.62;0.00;0.00;0.62;2.43;1.50;;;26.00;25.40;;;;;;2241673;62;20358;-62
2022/09/02 10:53:27;0.00;0.00;0.62;0.00;0.00;0.62;2.90;1.30;;;26.00;25.30;;;;;;2239857;61;20376;-62
2022/09/02 10:56:17;0.00;0.00;0.62;0.00;0.00;0.62;2.50;1.40;;;26.10;25.40;;;;;;2237935;62;20393;-62
2022/09/02 10:59:08;0.00;0.00;0.62;0.00;0.00;0.62;2.80;1.40;;;26.10;25.30;;;;;;2237504;62;20404;-61
2022/09/02 11:02:00;0.00;0.00;0.62;0.00;0.00;0.62;2.20;1.30;;;26.10;25.30;;;;;;2237598;62;20359;-62